sensor_id;sensor_type;location;lat;lon;timestamp;temperature;humidity
11426;DHT22;5769;47.998;7.788;2024-01-07T00:00:42;19.00;73.50
11426;DHT22;5769;47.998;7.788;2024-01-07T00:03:13;19.00;73.40
11426;DHT22;5769;47.998;7.788;2024-01-07T00:05:43;19.00;73.40
11426;DHT22;5769;47.998;7.788;2024-01-07T00:08:12;19.00;73.40
11426;DHT22;5769;47.998;7.788;2024-01-07T00:10:39;19.00;73.40
11426;DHT22;5769;47.998;7.788;2024-01-07T00:13:05;19.00;73.40
11426;DHT22;5769;47.998;7.788;2024-01-07T00:15:32;19.00;73.30
11426;DHT22;5769;47.998;7.788;2024-01-07T00:18:00;19.00;73.30
11426;DHT22;5769;47.998;7.788;2024-01-07T00:20:27;19.00;73.30
11426;DHT22;5769;47.998;7.788;2024-01-07T00:22:53;19.00;73.30
11426;DHT22;5769;47.998;7.788;2024-01-07T00:25:22;19.00;73.30
11426;DHT22;5769;47.998;7.788;2024-01-07T00:27:48;19.00;73.30
11426;DHT22;5769;47.998;7.788;2024-01-07T00:30:21;19.00;73.30
11426;DHT22;5769;47.998;7.788;2024-01-07T00:32:47;19.00;73.20
11426;DHT22;5769;47.998;7.788;2024-01-07T00:35:18;19.00;73.20
11426;DHT22;5769;47.998;7.788;2024-01-07T00:37:44;19.00;73.20
11426;DHT22;5769;47.998;7.788;2024-01-07T00:40:12;19.00;73.20
11426;DHT22;5769;47.998;7.788;2024-01-07T00:42:41;19.00;73.20
11426;DHT22;5769;47.998;7.788;2024-01-07T00:45:11;19.00;73.20
11426;DHT22;5769;47.998;7.788;2024-01-07T00:47:38;19.00;73.10
11426;DHT22;5769;47.998;7.788;2024-01-07T00:50:05;19.00;73.20
11426;DHT22;5769;47.998;7.788;2024-01-07T00:52:33;19.00;73.20
11426;DHT22;5769;47.998;7.788;2024-01-07T00:55:02;19.00;73.80
11426;DHT22;5769;47.998;7.788;2024-01-07T00:57:29;19.00;73.10
11426;DHT22;5769;47.998;7.788;2024-01-07T00:59:59;19.00;73.10
11426;DHT22;5769;47.998;7.788;2024-01-07T01:02:26;19.00;73.10
11426;DHT22;5769;47.998;7.788;2024-01-07T01:04:54;19.00;73.10
11426;DHT22;5769;47.998;7.788;2024-01-07T01:07:21;18.90;73.00
11426;DHT22;5769;47.998;7.788;2024-01-07T01:09:49;19.00;73.00
11426;DHT22;5769;47.998;7.788;2024-01-07T01:12:16;19.00;73.00
11426;DHT22;5769;47.998;7.788;2024-01-07T01:14:42;19.00;73.00
11426;DHT22;5769;47.998;7.788;2024-01-07T01:17:09;18.90;73.00
11426;DHT22;5769;47.998;7.788;2024-01-07T01:19:36;18.90;72.90
11426;DHT22;5769;47.998;7.788;2024-01-07T01:22:03;18.90;72.90
11426;DHT22;5769;47.998;7.788;2024-01-07T01:24:29;18.90;72.90
11426;DHT22;5769;47.998;7.788;2024-01-07T01:26:57;19.00;72.90
11426;DHT22;5769;47.998;7.788;2024-01-07T01:29:24;19.00;72.90
11426;DHT22;5769;47.998;7.788;2024-01-07T01:31:51;19.00;72.90
11426;DHT22;5769;47.998;7.788;2024-01-07T01:34:18;18.90;72.80
11426;DHT22;5769;47.998;7.788;2024-01-07T01:36:44;19.00;72.90
11426;DHT22;5769;47.998;7.788;2024-01-07T01:39:11;18.90;72.80
11426;DHT22;5769;47.998;7.788;2024-01-07T01:41:38;18.90;72.80
11426;DHT22;5769;47.998;7.788;2024-01-07T01:44:07;18.90;72.80
11426;DHT22;5769;47.998;7.788;2024-01-07T01:46:34;18.90;72.80
11426;DHT22;5769;47.998;7.788;2024-01-07T01:49:01;19.00;72.90
11426;DHT22;5769;47.998;7.788;2024-01-07T01:51:28;18.90;72.80
11426;DHT22;5769;47.998;7.788;2024-01-07T01:53:55;18.90;72.80
11426;DHT22;5769;47.998;7.788;2024-01-07T01:56:25;18.90;72.80
11426;DHT22;5769;47.998;7.788;2024-01-07T01:58:56;18.90;72.80
11426;DHT22;5769;47.998;7.788;2024-01-07T02:01:24;18.90;72.80
11426;DHT22;5769;47.998;7.788;2024-01-07T02:03:51;18.90;72.80
11426;DHT22;5769;47.998;7.788;2024-01-07T02:06:21;18.90;72.80
11426;DHT22;5769;47.998;7.788;2024-01-07T02:08:48;18.90;72.80
11426;DHT22;5769;47.998;7.788;2024-01-07T02:11:17;18.90;72.80
11426;DHT22;5769;47.998;7.788;2024-01-07T02:13:44;18.90;72.80
11426;DHT22;5769;47.998;7.788;2024-01-07T02:16:14;18.90;72.80
11426;DHT22;5769;47.998;7.788;2024-01-07T02:18:44;18.90;72.80
11426;DHT22;5769;47.998;7.788;2024-01-07T02:21:13;18.90;72.80
11426;DHT22;5769;47.998;7.788;2024-01-07T02:23:40;18.90;72.70
11426;DHT22;5769;47.998;7.788;2024-01-07T02:26:11;18.90;72.70
11426;DHT22;5769;47.998;7.788;2024-01-07T02:28:37;18.90;72.70
11426;DHT22;5769;47.998;7.788;2024-01-07T02:31:07;18.90;72.70
11426;DHT22;5769;47.998;7.788;2024-01-07T02:33:34;18.90;72.70
11426;DHT22;5769;47.998;7.788;2024-01-07T02:36:00;18.90;72.70
11426;DHT22;5769;47.998;7.788;2024-01-07T02:38:27;18.90;72.80
11426;DHT22;5769;47.998;7.788;2024-01-07T02:40:54;18.90;72.70
11426;DHT22;5769;47.998;7.788;2024-01-07T02:43:22;18.90;72.70
11426;DHT22;5769;47.998;7.788;2024-01-07T02:45:52;18.90;72.70
11426;DHT22;5769;47.998;7.788;2024-01-07T02:48:18;18.90;72.70
11426;DHT22;5769;47.998;7.788;2024-01-07T02:50:45;18.90;72.70
11426;DHT22;5769;47.998;7.788;2024-01-07T02:53:12;18.90;72.70
11426;DHT22;5769;47.998;7.788;2024-01-07T02:55:38;18.90;72.70
11426;DHT22;5769;47.998;7.788;2024-01-07T02:58:05;18.90;72.70
11426;DHT22;5769;47.998;7.788;2024-01-07T03:00:33;18.90;72.70
11426;DHT22;5769;47.998;7.788;2024-01-07T03:03:00;18.90;72.70
11426;DHT22;5769;47.998;7.788;2024-01-07T03:05:29;18.90;72.70
11426;DHT22;5769;47.998;7.788;2024-01-07T03:07:58;18.90;73.30
11426;DHT22;5769;47.998;7.788;2024-01-07T03:10:25;18.90;72.60
11426;DHT22;5769;47.998;7.788;2024-01-07T03:12:51;18.90;72.60
11426;DHT22;5769;47.998;7.788;2024-01-07T03:15:18;18.90;72.60
11426;DHT22;5769;47.998;7.788;2024-01-07T03:17:46;18.90;72.60
11426;DHT22;5769;47.998;7.788;2024-01-07T03:20:18;18.90;72.60
11426;DHT22;5769;47.998;7.788;2024-01-07T03:22:45;18.90;72.60
11426;DHT22;5769;47.998;7.788;2024-01-07T03:25:12;18.80;72.60
11426;DHT22;5769;47.998;7.788;2024-01-07T03:27:38;18.90;72.50
11426;DHT22;5769;47.998;7.788;2024-01-07T03:30:06;18.90;72.50
11426;DHT22;5769;47.998;7.788;2024-01-07T03:32:33;18.90;72.50
11426;DHT22;5769;47.998;7.788;2024-01-07T03:35:01;18.80;72.40
11426;DHT22;5769;47.998;7.788;2024-01-07T03:37:28;18.90;72.50
11426;DHT22;5769;47.998;7.788;2024-01-07T03:39:57;18.90;72.50
11426;DHT22;5769;47.998;7.788;2024-01-07T03:42:27;18.80;72.50
11426;DHT22;5769;47.998;7.788;2024-01-07T03:44:54;18.90;72.50
11426;DHT22;5769;47.998;7.788;2024-01-07T03:47:21;18.90;72.50
11426;DHT22;5769;47.998;7.788;2024-01-07T03:49:47;18.80;72.50
11426;DHT22;5769;47.998;7.788;2024-01-07T03:52:16;18.80;72.50
11426;DHT22;5769;47.998;7.788;2024-01-07T03:54:42;18.80;72.40
11426;DHT22;5769;47.998;7.788;2024-01-07T03:57:09;18.80;72.40
11426;DHT22;5769;47.998;7.788;2024-01-07T03:59:36;18.80;72.40
11426;DHT22;5769;47.998;7.788;2024-01-07T04:02:03;18.80;72.40
11426;DHT22;5769;47.998;7.788;2024-01-07T04:04:30;18.90;72.40
11426;DHT22;5769;47.998;7.788;2024-01-07T04:06:56;18.80;72.40
11426;DHT22;5769;47.998;7.788;2024-01-07T04:09:25;18.80;72.40
11426;DHT22;5769;47.998;7.788;2024-01-07T04:11:52;18.80;72.40
11426;DHT22;5769;47.998;7.788;2024-01-07T04:14:18;18.80;72.40
11426;DHT22;5769;47.998;7.788;2024-01-07T04:16:45;18.80;72.40
11426;DHT22;5769;47.998;7.788;2024-01-07T04:19:12;18.80;72.40
11426;DHT22;5769;47.998;7.788;2024-01-07T04:21:39;18.80;72.40
11426;DHT22;5769;47.998;7.788;2024-01-07T04:24:06;18.90;72.40
11426;DHT22;5769;47.998;7.788;2024-01-07T04:26:34;18.80;72.40
11426;DHT22;5769;47.998;7.788;2024-01-07T04:29:03;18.80;72.30
11426;DHT22;5769;47.998;7.788;2024-01-07T04:31:32;18.80;72.30
11426;DHT22;5769;47.998;7.788;2024-01-07T04:33:58;18.80;72.30
11426;DHT22;5769;47.998;7.788;2024-01-07T04:36:25;18.80;72.40
11426;DHT22;5769;47.998;7.788;2024-01-07T04:38:52;18.80;72.30
11426;DHT22;5769;47.998;7.788;2024-01-07T04:41:19;18.80;72.30
11426;DHT22;5769;47.998;7.788;2024-01-07T04:43:47;18.80;72.30
11426;DHT22;5769;47.998;7.788;2024-01-07T04:46:14;18.80;72.30
11426;DHT22;5769;47.998;7.788;2024-01-07T04:48:41;18.80;72.30
11426;DHT22;5769;47.998;7.788;2024-01-07T04:51:07;18.80;72.30
11426;DHT22;5769;47.998;7.788;2024-01-07T04:53:34;18.80;72.30
11426;DHT22;5769;47.998;7.788;2024-01-07T04:56:02;18.80;72.30
11426;DHT22;5769;47.998;7.788;2024-01-07T04:58:29;18.80;72.30
11426;DHT22;5769;47.998;7.788;2024-01-07T05:00:57;18.80;72.30
11426;DHT22;5769;47.998;7.788;2024-01-07T05:03:23;18.80;72.30
11426;DHT22;5769;47.998;7.788;2024-01-07T05:05:50;18.80;72.20
11426;DHT22;5769;47.998;7.788;2024-01-07T05:08:17;18.80;72.20
11426;DHT22;5769;47.998;7.788;2024-01-07T05:10:43;18.80;72.90
11426;DHT22;5769;47.998;7.788;2024-01-07T05:13:10;18.80;72.20
11426;DHT22;5769;47.998;7.788;2024-01-07T05:15:37;18.80;72.20
11426;DHT22;5769;47.998;7.788;2024-01-07T05:18:08;18.80;72.20
11426;DHT22;5769;47.998;7.788;2024-01-07T05:20:35;18.80;72.20
11426;DHT22;5769;47.998;7.788;2024-01-07T05:23:02;18.80;72.20
11426;DHT22;5769;47.998;7.788;2024-01-07T05:25:29;18.80;72.20
11426;DHT22;5769;47.998;7.788;2024-01-07T05:27:55;18.80;72.20
11426;DHT22;5769;47.998;7.788;2024-01-07T05:30:22;18.80;72.20
11426;DHT22;5769;47.998;7.788;2024-01-07T05:32:49;18.80;72.20
11426;DHT22;5769;47.998;7.788;2024-01-07T05:35:17;18.80;72.20
11426;DHT22;5769;47.998;7.788;2024-01-07T05:37:44;18.80;72.10
11426;DHT22;5769;47.998;7.788;2024-01-07T05:40:11;18.80;72.10
11426;DHT22;5769;47.998;7.788;2024-01-07T05:42:38;18.80;72.10
11426;DHT22;5769;47.998;7.788;2024-01-07T05:45:05;18.80;72.10
11426;DHT22;5769;47.998;7.788;2024-01-07T05:47:32;18.80;72.20
11426;DHT22;5769;47.998;7.788;2024-01-07T05:49:59;18.80;72.10
11426;DHT22;5769;47.998;7.788;2024-01-07T05:52:27;18.80;72.10
11426;DHT22;5769;47.998;7.788;2024-01-07T05:54:54;18.80;72.10
11426;DHT22;5769;47.998;7.788;2024-01-07T05:57:20;18.80;72.10
11426;DHT22;5769;47.998;7.788;2024-01-07T05:59:47;18.80;72.10
11426;DHT22;5769;47.998;7.788;2024-01-07T06:02:15;18.80;72.10
11426;DHT22;5769;47.998;7.788;2024-01-07T06:04:42;18.80;72.10
11426;DHT22;5769;47.998;7.788;2024-01-07T06:07:09;18.80;72.10
11426;DHT22;5769;47.998;7.788;2024-01-07T06:09:37;18.80;72.10
11426;DHT22;5769;47.998;7.788;2024-01-07T06:12:05;18.80;72.10
11426;DHT22;5769;47.998;7.788;2024-01-07T06:14:32;18.80;72.10
11426;DHT22;5769;47.998;7.788;2024-01-07T06:16:59;18.80;72.10
11426;DHT22;5769;47.998;7.788;2024-01-07T06:19:26;18.80;72.10
11426;DHT22;5769;47.998;7.788;2024-01-07T06:21:53;18.80;72.10
11426;DHT22;5769;47.998;7.788;2024-01-07T06:24:20;18.80;72.10
11426;DHT22;5769;47.998;7.788;2024-01-07T06:26:48;18.80;72.10
11426;DHT22;5769;47.998;7.788;2024-01-07T06:29:14;18.80;72.10
11426;DHT22;5769;47.998;7.788;2024-01-07T06:31:44;18.80;72.10
11426;DHT22;5769;47.998;7.788;2024-01-07T06:34:11;18.80;72.10
11426;DHT22;5769;47.998;7.788;2024-01-07T06:36:39;18.80;72.10
11426;DHT22;5769;47.998;7.788;2024-01-07T06:39:06;18.80;72.10
11426;DHT22;5769;47.998;7.788;2024-01-07T06:41:33;18.80;72.10
11426;DHT22;5769;47.998;7.788;2024-01-07T06:44:02;18.80;72.10
11426;DHT22;5769;47.998;7.788;2024-01-07T06:46:29;18.80;72.00
11426;DHT22;5769;47.998;7.788;2024-01-07T06:48:56;18.80;72.00
11426;DHT22;5769;47.998;7.788;2024-01-07T06:51:23;18.80;72.00
11426;DHT22;5769;47.998;7.788;2024-01-07T06:53:50;18.80;72.00
11426;DHT22;5769;47.998;7.788;2024-01-07T06:56:17;18.80;72.00
11426;DHT22;5769;47.998;7.788;2024-01-07T06:58:44;18.80;72.00
11426;DHT22;5769;47.998;7.788;2024-01-07T07:01:12;18.80;72.00
11426;DHT22;5769;47.998;7.788;2024-01-07T07:03:40;18.80;72.00
11426;DHT22;5769;47.998;7.788;2024-01-07T07:06:07;18.80;72.00
11426;DHT22;5769;47.998;7.788;2024-01-07T07:08:34;18.80;72.00
11426;DHT22;5769;47.998;7.788;2024-01-07T07:11:04;18.80;72.00
11426;DHT22;5769;47.998;7.788;2024-01-07T07:13:32;18.80;72.00
11426;DHT22;5769;47.998;7.788;2024-01-07T07:15:59;18.80;72.00
11426;DHT22;5769;47.998;7.788;2024-01-07T07:18:27;18.80;72.00
11426;DHT22;5769;47.998;7.788;2024-01-07T07:20:53;18.80;72.00
11426;DHT22;5769;47.998;7.788;2024-01-07T07:23:20;18.80;72.00
11426;DHT22;5769;47.998;7.788;2024-01-07T07:25:47;18.80;72.00
11426;DHT22;5769;47.998;7.788;2024-01-07T07:28:14;18.80;72.00
11426;DHT22;5769;47.998;7.788;2024-01-07T07:30:43;18.80;72.00
11426;DHT22;5769;47.998;7.788;2024-01-07T07:33:10;18.80;72.00
11426;DHT22;5769;47.998;7.788;2024-01-07T07:35:38;18.80;71.90
11426;DHT22;5769;47.998;7.788;2024-01-07T07:38:07;18.80;71.90
11426;DHT22;5769;47.998;7.788;2024-01-07T07:40:34;18.80;71.90
11426;DHT22;5769;47.998;7.788;2024-01-07T07:43:00;18.80;71.90
11426;DHT22;5769;47.998;7.788;2024-01-07T07:45:28;18.80;71.90
11426;DHT22;5769;47.998;7.788;2024-01-07T07:47:54;18.80;71.90
11426;DHT22;5769;47.998;7.788;2024-01-07T07:50:21;18.70;71.90
11426;DHT22;5769;47.998;7.788;2024-01-07T07:52:49;18.70;71.90
11426;DHT22;5769;47.998;7.788;2024-01-07T07:55:16;18.70;71.80
11426;DHT22;5769;47.998;7.788;2024-01-07T07:57:43;18.80;71.90
11426;DHT22;5769;47.998;7.788;2024-01-07T08:00:12;18.80;71.90
11426;DHT22;5769;47.998;7.788;2024-01-07T08:02:39;18.70;71.90
11426;DHT22;5769;47.998;7.788;2024-01-07T08:05:07;18.70;71.80
11426;DHT22;5769;47.998;7.788;2024-01-07T08:07:35;18.70;71.80
11426;DHT22;5769;47.998;7.788;2024-01-07T08:10:04;18.70;71.80
11426;DHT22;5769;47.998;7.788;2024-01-07T08:12:31;18.70;71.80
11426;DHT22;5769;47.998;7.788;2024-01-07T08:14:58;18.70;71.80
11426;DHT22;5769;47.998;7.788;2024-01-07T08:17:24;18.70;71.80
11426;DHT22;5769;47.998;7.788;2024-01-07T08:19:51;18.70;71.80
11426;DHT22;5769;47.998;7.788;2024-01-07T08:22:18;18.80;71.80
11426;DHT22;5769;47.998;7.788;2024-01-07T08:24:45;18.80;71.80
11426;DHT22;5769;47.998;7.788;2024-01-07T08:27:13;18.70;71.80
11426;DHT22;5769;47.998;7.788;2024-01-07T08:29:42;18.70;71.70
11426;DHT22;5769;47.998;7.788;2024-01-07T08:32:10;18.70;71.70
11426;DHT22;5769;47.998;7.788;2024-01-07T08:34:38;18.70;71.80
11426;DHT22;5769;47.998;7.788;2024-01-07T08:37:05;18.70;71.70
11426;DHT22;5769;47.998;7.788;2024-01-07T08:39:32;18.80;71.70
11426;DHT22;5769;47.998;7.788;2024-01-07T08:41:58;18.80;71.70
11426;DHT22;5769;47.998;7.788;2024-01-07T08:44:28;18.80;71.70
11426;DHT22;5769;47.998;7.788;2024-01-07T08:46:54;18.80;71.70
11426;DHT22;5769;47.998;7.788;2024-01-07T08:49:21;18.80;71.70
11426;DHT22;5769;47.998;7.788;2024-01-07T08:51:48;18.70;71.60
11426;DHT22;5769;47.998;7.788;2024-01-07T08:54:15;18.70;71.70
11426;DHT22;5769;47.998;7.788;2024-01-07T08:56:42;18.70;71.70
11426;DHT22;5769;47.998;7.788;2024-01-07T08:59:09;18.70;71.70
11426;DHT22;5769;47.998;7.788;2024-01-07T09:01:37;18.70;71.70
11426;DHT22;5769;47.998;7.788;2024-01-07T09:04:04;18.70;71.70
11426;DHT22;5769;47.998;7.788;2024-01-07T09:06:31;18.70;72.40
11426;DHT22;5769;47.998;7.788;2024-01-07T09:08:58;18.70;71.70
11426;DHT22;5769;47.998;7.788;2024-01-07T09:11:25;18.70;71.70
11426;DHT22;5769;47.998;7.788;2024-01-07T09:13:51;18.70;71.60
11426;DHT22;5769;47.998;7.788;2024-01-07T09:16:18;18.70;71.60
11426;DHT22;5769;47.998;7.788;2024-01-07T09:18:46;18.70;71.60
11426;DHT22;5769;47.998;7.788;2024-01-07T09:21:13;18.70;71.60
11426;DHT22;5769;47.998;7.788;2024-01-07T09:23:40;18.70;71.70
11426;DHT22;5769;47.998;7.788;2024-01-07T09:26:08;18.70;71.60
11426;DHT22;5769;47.998;7.788;2024-01-07T09:28:35;18.70;71.70
11426;DHT22;5769;47.998;7.788;2024-01-07T09:31:01;18.70;71.70
11426;DHT22;5769;47.998;7.788;2024-01-07T09:33:31;18.70;71.60
11426;DHT22;5769;47.998;7.788;2024-01-07T09:36:02;18.70;71.60
11426;DHT22;5769;47.998;7.788;2024-01-07T09:38:28;18.70;71.60
11426;DHT22;5769;47.998;7.788;2024-01-07T09:40:55;18.70;71.60
11426;DHT22;5769;47.998;7.788;2024-01-07T09:43:22;18.70;71.60
11426;DHT22;5769;47.998;7.788;2024-01-07T09:45:50;18.70;71.60
11426;DHT22;5769;47.998;7.788;2024-01-07T09:48:18;18.70;71.60
11426;DHT22;5769;47.998;7.788;2024-01-07T09:50:45;18.70;71.60
11426;DHT22;5769;47.998;7.788;2024-01-07T09:53:16;18.70;71.60
11426;DHT22;5769;47.998;7.788;2024-01-07T09:55:51;18.70;71.60
11426;DHT22;5769;47.998;7.788;2024-01-07T09:58:19;18.70;71.60
11426;DHT22;5769;47.998;7.788;2024-01-07T10:00:46;18.70;71.60
11426;DHT22;5769;47.998;7.788;2024-01-07T10:03:13;18.70;71.60
11426;DHT22;5769;47.998;7.788;2024-01-07T10:05:43;18.70;71.60
11426;DHT22;5769;47.998;7.788;2024-01-07T10:08:10;18.70;71.60
11426;DHT22;5769;47.998;7.788;2024-01-07T10:10:38;18.70;71.60
11426;DHT22;5769;47.998;7.788;2024-01-07T10:13:06;18.70;71.60
11426;DHT22;5769;47.998;7.788;2024-01-07T10:15:38;18.70;71.60
11426;DHT22;5769;47.998;7.788;2024-01-07T10:18:06;18.70;71.50
11426;DHT22;5769;47.998;7.788;2024-01-07T10:20:35;18.70;71.50
11426;DHT22;5769;47.998;7.788;2024-01-07T10:23:17;18.70;71.50
11426;DHT22;5769;47.998;7.788;2024-01-07T10:25:46;18.70;71.50
11426;DHT22;5769;47.998;7.788;2024-01-07T10:28:17;18.70;71.50
11426;DHT22;5769;47.998;7.788;2024-01-07T10:30:48;18.70;71.50
11426;DHT22;5769;47.998;7.788;2024-01-07T10:33:17;18.70;71.50
11426;DHT22;5769;47.998;7.788;2024-01-07T10:35:52;18.70;71.50
11426;DHT22;5769;47.998;7.788;2024-01-07T10:38:23;18.70;71.50
11426;DHT22;5769;47.998;7.788;2024-01-07T10:40:55;18.70;71.50
11426;DHT22;5769;47.998;7.788;2024-01-07T10:43:23;18.70;71.50
11426;DHT22;5769;47.998;7.788;2024-01-07T10:45:50;18.70;71.50
11426;DHT22;5769;47.998;7.788;2024-01-07T10:48:18;18.70;71.50
11426;DHT22;5769;47.998;7.788;2024-01-07T10:50:47;18.70;71.50
11426;DHT22;5769;47.998;7.788;2024-01-07T10:53:19;18.70;71.50
11426;DHT22;5769;47.998;7.788;2024-01-07T10:55:51;18.70;71.50
11426;DHT22;5769;47.998;7.788;2024-01-07T10:58:23;18.70;71.50
11426;DHT22;5769;47.998;7.788;2024-01-07T11:00:51;18.70;71.50
11426;DHT22;5769;47.998;7.788;2024-01-07T11:03:22;18.70;71.50
11426;DHT22;5769;47.998;7.788;2024-01-07T11:05:57;18.70;71.50
11426;DHT22;5769;47.998;7.788;2024-01-07T11:08:30;18.70;71.50
11426;DHT22;5769;47.998;7.788;2024-01-07T11:11:07;18.70;71.50
11426;DHT22;5769;47.998;7.788;2024-01-07T11:13:38;18.70;71.50
11426;DHT22;5769;47.998;7.788;2024-01-07T11:16:06;18.70;71.50
11426;DHT22;5769;47.998;7.788;2024-01-07T11:18:38;18.70;71.50
11426;DHT22;5769;47.998;7.788;2024-01-07T11:21:09;18.70;71.50
11426;DHT22;5769;47.998;7.788;2024-01-07T11:23:52;18.70;71.50
11426;DHT22;5769;47.998;7.788;2024-01-07T11:26:20;18.70;71.50
11426;DHT22;5769;47.998;7.788;2024-01-07T11:28:50;18.70;71.50
11426;DHT22;5769;47.998;7.788;2024-01-07T11:31:42;18.70;71.50
11426;DHT22;5769;47.998;7.788;2024-01-07T11:34:09;18.70;71.50
11426;DHT22;5769;47.998;7.788;2024-01-07T11:36:38;18.70;71.40
11426;DHT22;5769;47.998;7.788;2024-01-07T11:39:05;18.70;71.40
11426;DHT22;5769;47.998;7.788;2024-01-07T11:41:37;18.70;71.40
11426;DHT22;5769;47.998;7.788;2024-01-07T11:44:10;18.70;71.40
11426;DHT22;5769;47.998;7.788;2024-01-07T11:46:37;18.70;71.40
11426;DHT22;5769;47.998;7.788;2024-01-07T11:49:13;18.70;71.50
11426;DHT22;5769;47.998;7.788;2024-01-07T11:51:45;18.70;71.40
11426;DHT22;5769;47.998;7.788;2024-01-07T11:54:12;18.70;71.50
11426;DHT22;5769;47.998;7.788;2024-01-07T11:56:39;18.70;71.40
11426;DHT22;5769;47.998;7.788;2024-01-07T11:59:07;18.70;71.40
11426;DHT22;5769;47.998;7.788;2024-01-07T12:01:39;18.70;71.40
11426;DHT22;5769;47.998;7.788;2024-01-07T12:04:05;18.70;71.40
11426;DHT22;5769;47.998;7.788;2024-01-07T12:06:33;18.70;71.40
11426;DHT22;5769;47.998;7.788;2024-01-07T12:09:00;18.70;71.40
11426;DHT22;5769;47.998;7.788;2024-01-07T12:11:29;18.70;71.40
11426;DHT22;5769;47.998;7.788;2024-01-07T12:13:57;18.70;71.40
11426;DHT22;5769;47.998;7.788;2024-01-07T12:16:25;18.70;71.40
11426;DHT22;5769;47.998;7.788;2024-01-07T12:18:52;18.70;71.40
11426;DHT22;5769;47.998;7.788;2024-01-07T12:21:21;18.70;71.40
11426;DHT22;5769;47.998;7.788;2024-01-07T12:23:49;18.70;71.40
11426;DHT22;5769;47.998;7.788;2024-01-07T12:26:25;18.70;71.40
11426;DHT22;5769;47.998;7.788;2024-01-07T12:28:53;18.70;71.40
11426;DHT22;5769;47.998;7.788;2024-01-07T12:31:24;18.70;71.40
11426;DHT22;5769;47.998;7.788;2024-01-07T12:33:52;18.70;71.40
11426;DHT22;5769;47.998;7.788;2024-01-07T12:36:22;18.70;71.40
11426;DHT22;5769;47.998;7.788;2024-01-07T12:38:49;18.70;71.40
11426;DHT22;5769;47.998;7.788;2024-01-07T12:41:19;18.70;71.40
11426;DHT22;5769;47.998;7.788;2024-01-07T12:43:46;18.70;71.40
11426;DHT22;5769;47.998;7.788;2024-01-07T12:46:13;18.70;71.40
11426;DHT22;5769;47.998;7.788;2024-01-07T12:48:41;18.70;71.40
11426;DHT22;5769;47.998;7.788;2024-01-07T12:51:08;18.70;71.40
11426;DHT22;5769;47.998;7.788;2024-01-07T12:53:37;18.70;71.40
11426;DHT22;5769;47.998;7.788;2024-01-07T12:56:07;18.70;71.40
11426;DHT22;5769;47.998;7.788;2024-01-07T12:58:33;18.70;71.30
11426;DHT22;5769;47.998;7.788;2024-01-07T13:01:00;18.70;71.30
11426;DHT22;5769;47.998;7.788;2024-01-07T13:03:27;18.70;71.30
11426;DHT22;5769;47.998;7.788;2024-01-07T13:05:55;18.70;71.30
11426;DHT22;5769;47.998;7.788;2024-01-07T13:08:22;18.70;71.30
11426;DHT22;5769;47.998;7.788;2024-01-07T13:10:51;18.70;71.30
11426;DHT22;5769;47.998;7.788;2024-01-07T13:13:18;18.70;71.30
11426;DHT22;5769;47.998;7.788;2024-01-07T13:15:47;18.70;71.30
11426;DHT22;5769;47.998;7.788;2024-01-07T13:18:17;18.70;71.30
11426;DHT22;5769;47.998;7.788;2024-01-07T13:20:44;18.70;71.30
11426;DHT22;5769;47.998;7.788;2024-01-07T13:23:12;18.60;71.20
11426;DHT22;5769;47.998;7.788;2024-01-07T13:25:44;18.70;71.30
11426;DHT22;5769;47.998;7.788;2024-01-07T13:28:11;18.70;71.30
11426;DHT22;5769;47.998;7.788;2024-01-07T13:30:41;18.70;71.30
11426;DHT22;5769;47.998;7.788;2024-01-07T13:33:10;18.70;71.30
11426;DHT22;5769;47.998;7.788;2024-01-07T13:35:47;18.70;71.30
11426;DHT22;5769;47.998;7.788;2024-01-07T13:38:18;18.70;71.30
11426;DHT22;5769;47.998;7.788;2024-01-07T13:40:50;18.70;71.30
11426;DHT22;5769;47.998;7.788;2024-01-07T13:43:20;18.70;71.30
11426;DHT22;5769;47.998;7.788;2024-01-07T13:45:49;18.70;71.30
11426;DHT22;5769;47.998;7.788;2024-01-07T13:48:16;18.70;71.30
11426;DHT22;5769;47.998;7.788;2024-01-07T13:50:43;18.70;71.30
11426;DHT22;5769;47.998;7.788;2024-01-07T13:53:15;18.70;71.30
11426;DHT22;5769;47.998;7.788;2024-01-07T13:55:42;18.60;71.20
11426;DHT22;5769;47.998;7.788;2024-01-07T13:58:12;18.70;71.30
11426;DHT22;5769;47.998;7.788;2024-01-07T14:00:40;18.60;71.20
11426;DHT22;5769;47.998;7.788;2024-01-07T14:03:13;18.70;71.30
11426;DHT22;5769;47.998;7.788;2024-01-07T14:05:39;18.70;71.30
11426;DHT22;5769;47.998;7.788;2024-01-07T14:08:06;18.70;71.20
11426;DHT22;5769;47.998;7.788;2024-01-07T14:10:34;18.60;71.20
11426;DHT22;5769;47.998;7.788;2024-01-07T14:13:02;18.60;71.20
11426;DHT22;5769;47.998;7.788;2024-01-07T14:15:32;18.60;71.20
11426;DHT22;5769;47.998;7.788;2024-01-07T14:17:59;18.70;71.20
11426;DHT22;5769;47.998;7.788;2024-01-07T14:20:25;18.70;71.20
11426;DHT22;5769;47.998;7.788;2024-01-07T14:23:04;18.70;71.20
11426;DHT22;5769;47.998;7.788;2024-01-07T14:25:31;18.70;71.20
11426;DHT22;5769;47.998;7.788;2024-01-07T14:27:59;18.70;71.20
11426;DHT22;5769;47.998;7.788;2024-01-07T14:30:26;18.70;71.20
11426;DHT22;5769;47.998;7.788;2024-01-07T14:32:53;18.70;71.20
11426;DHT22;5769;47.998;7.788;2024-01-07T14:35:20;18.60;71.20
11426;DHT22;5769;47.998;7.788;2024-01-07T14:37:48;18.60;71.20
11426;DHT22;5769;47.998;7.788;2024-01-07T14:40:15;18.60;71.20
11426;DHT22;5769;47.998;7.788;2024-01-07T14:42:43;18.60;71.20
11426;DHT22;5769;47.998;7.788;2024-01-07T14:45:15;18.60;71.20
11426;DHT22;5769;47.998;7.788;2024-01-07T14:47:47;18.60;71.20
11426;DHT22;5769;47.998;7.788;2024-01-07T14:50:16;18.60;71.20
11426;DHT22;5769;47.998;7.788;2024-01-07T14:52:54;18.60;71.20
11426;DHT22;5769;47.998;7.788;2024-01-07T14:55:25;18.60;71.20
11426;DHT22;5769;47.998;7.788;2024-01-07T14:58:00;18.60;71.20
11426;DHT22;5769;47.998;7.788;2024-01-07T15:00:28;18.60;71.20
11426;DHT22;5769;47.998;7.788;2024-01-07T15:02:56;18.60;71.20
11426;DHT22;5769;47.998;7.788;2024-01-07T15:05:23;18.60;71.20
11426;DHT22;5769;47.998;7.788;2024-01-07T15:07:53;18.60;71.10
11426;DHT22;5769;47.998;7.788;2024-01-07T15:10:24;18.60;71.10
11426;DHT22;5769;47.998;7.788;2024-01-07T15:12:53;18.60;71.20
11426;DHT22;5769;47.998;7.788;2024-01-07T15:15:23;18.60;71.10
11426;DHT22;5769;47.998;7.788;2024-01-07T15:17:56;18.60;71.20
11426;DHT22;5769;47.998;7.788;2024-01-07T15:20:29;18.60;71.10
11426;DHT22;5769;47.998;7.788;2024-01-07T15:23:07;18.60;71.10
11426;DHT22;5769;47.998;7.788;2024-01-07T15:25:41;18.60;71.10
11426;DHT22;5769;47.998;7.788;2024-01-07T15:28:14;18.60;71.10
11426;DHT22;5769;47.998;7.788;2024-01-07T15:30:43;18.60;71.10
11426;DHT22;5769;47.998;7.788;2024-01-07T15:33:15;18.60;71.10
11426;DHT22;5769;47.998;7.788;2024-01-07T15:35:42;18.60;71.10
11426;DHT22;5769;47.998;7.788;2024-01-07T15:38:08;18.60;71.10
11426;DHT22;5769;47.998;7.788;2024-01-07T15:40:36;18.60;71.10
11426;DHT22;5769;47.998;7.788;2024-01-07T15:43:02;18.60;71.10
11426;DHT22;5769;47.998;7.788;2024-01-07T15:45:31;18.60;71.10
11426;DHT22;5769;47.998;7.788;2024-01-07T15:47:58;18.60;71.10
11426;DHT22;5769;47.998;7.788;2024-01-07T15:50:26;18.60;71.10